Time;durP1;ratioP1;P1;durP2;ratioP2;P2;SDS_P1;SDS_P2;PMS_P1;PMS_P2;Temp;Humidity;BMP_temperature;BMP_pressure;BME280_temperature;BME280_humidity;BME280_pressure;Samples;Min_cycle;Max_cycle;Signal;HPM_P1;HPM_P2
2024/01/22 05:46:12;;;;;;;2.20;1.75;;;;;;;10.19;100.00;99881.06;5839372;24;20940;-77
2024/01/22 05:48:37;;;;;;;2.40;1.40;;;;;;;10.20;100.00;99902.22;4816948;29;20528;-77
2024/01/22 05:51:02;;;;;;;2.10;1.45;;;;;;;10.20;100.00;99909.84;4821677;29;20035;-77
2024/01/22 05:53:28;;;;;;;1.25;1.15;;;;;;;10.15;100.00;99911.03;4819239;29;20791;-78
2024/01/22 05:55:54;;;;;;;4.22;1.63;;;;;;;10.23;100.00;99929.41;4821597;29;20030;-78
2024/01/22 05:58:19;;;;;;;3.60;1.40;;;;;;;10.15;100.00;99920.22;4811990;29;20035;-78
2024/01/22 06:00:45;;;;;;;3.17;1.45;;;;;;;10.10;100.00;99931.81;4816095;29;20046;-78
2024/01/22 06:03:10;;;;;;;1.70;1.60;;;;;;;10.13;100.00;99907.84;4808800;29;20223;-78
2024/01/22 06:05:36;;;;;;;1.50;1.40;;;;;;;10.04;100.00;99930.59;4817544;29;20042;-77
2024/01/22 06:08:03;;;;;;;3.03;1.25;;;;;;;10.16;100.00;99918.22;4817825;29;20501;-77
2024/01/22 06:10:29;;;;;;;7.85;2.30;;;;;;;10.18;100.00;99933.41;4819302;29;20050;-77
2024/01/22 06:12:55;;;;;;;1.60;1.38;;;;;;;10.17;100.00;99919.81;4817202;29;20062;-77
2024/01/22 06:15:20;;;;;;;3.90;1.38;;;;;;;10.21;100.00;99919.84;4815166;29;20121;-77
2024/01/22 06:17:45;;;;;;;2.78;1.42;;;;;;;10.07;100.00;99915.03;4814147;29;20556;-77
2024/01/22 06:20:11;;;;;;;8.55;2.00;;;;;;;10.24;100.00;99942.19;4814205;29;20038;-78
2024/01/22 06:22:37;;;;;;;4.53;1.75;;;;;;;10.11;100.00;99933.41;4819360;29;20094;-77
2024/01/22 06:25:04;;;;;;;5.93;1.75;;;;;;;10.27;100.00;99923.84;4817018;29;20060;-77
2024/01/22 06:27:29;;;;;;;8.27;3.13;;;;;;;10.23;100.00;99925.84;4815642;29;20034;-77
2024/01/22 06:29:56;;;;;;;9.40;2.30;;;;;;;10.24;100.00;99931.00;4812891;29;20045;-77
2024/01/22 06:32:22;;;;;;;8.60;2.22;;;;;;;10.17;100.00;99925.41;4810947;29;20054;-77
2024/01/22 06:34:48;;;;;;;13.63;2.72;;;;;;;10.29;100.00;99943.81;4812372;29;20088;-77
2024/01/22 06:37:15;;;;;;;9.93;2.97;;;;;;;10.25;100.00;99932.63;4814918;29;20038;-77
2024/01/22 06:39:41;;;;;;;3.20;1.63;;;;;;;10.26;100.00;99945.38;4818114;29;20395;-77
2024/01/22 06:42:07;;;;;;;8.18;2.13;;;;;;;10.35;100.00;99943.03;4818136;29;20030;-77
2024/01/22 06:44:32;;;;;;;5.65;1.67;;;;;;;10.40;100.00;99938.25;4816842;29;20049;-77
2024/01/22 06:46:58;;;;;;;11.90;2.38;;;;;;;10.44;100.00;99945.44;4830253;29;20046;-77
2024/01/22 06:49:23;;;;;;;6.85;2.47;;;;;;;10.39;100.00;99951.41;4816853;29;20377;-77
2024/01/22 06:51:49;;;;;;;7.53;3.03;;;;;;;10.49;100.00;99963.81;4812233;29;20125;-77
2024/01/22 06:54:15;;;;;;;4.80;2.08;;;;;;;11.24;100.00;99968.53;4807699;29;20082;-77
2024/01/22 06:56:41;;;;;;;9.60;3.50;;;;;;;10.64;100.00;99971.00;4811182;29;20054;-76
2024/01/22 06:59:06;;;;;;;11.02;2.72;;;;;;;10.54;100.00;99972.63;4827217;29;20169;-75
2024/01/22 07:01:31;;;;;;;6.28;2.28;;;;;;;10.52;100.00;99968.59;4808276;29;20441;-75
2024/01/22 07:03:57;;;;;;;10.20;2.90;;;;;;;10.48;100.00;99968.63;4815390;29;20361;-75
2024/01/22 07:06:22;;;;;;;8.63;1.90;;;;;;;10.48;100.00;99965.03;4811710;29;20563;-75
2024/01/22 07:08:47;;;;;;;14.23;2.92;;;;;;;10.50;100.00;99987.81;4818101;29;20486;-75
2024/01/22 07:11:13;;;;;;;14.23;2.80;;;;;;;10.52;100.00;99997.41;4816289;29;20029;-75
2024/01/22 07:13:38;;;;;;;9.35;2.60;;;;;;;10.91;100.00;99992.97;4819430;29;20038;-78
2024/01/22 07:16:06;;;;;;;16.13;2.95;;;;;;;11.07;100.00;99998.97;4813169;29;20688;-73
2024/01/22 07:18:31;;;;;;;13.80;3.60;;;;;;;10.72;100.00;99989.38;4811943;29;20036;-75
2024/01/22 07:20:58;;;;;;;22.45;3.85;;;;;;;10.64;100.00;99978.59;4817822;29;20034;-74
2024/01/22 07:23:24;;;;;;;6.15;2.28;;;;;;;10.52;100.00;99996.59;4815582;29;20030;-74
2024/01/22 07:25:50;;;;;;;9.95;2.80;;;;;;;10.50;100.00;99987.81;4812509;29;20212;-77
2024/01/22 07:28:15;;;;;;;13.70;2.85;;;;;;;10.50;100.00;99993.41;4822618;29;21452;-75
2024/01/22 07:30:41;;;;;;;6.28;2.75;;;;;;;10.34;100.00;99991.00;4815686;29;20226;-74
2024/01/22 07:33:06;;;;;;;12.40;3.20;;;;;;;10.26;100.00;99984.53;4815428;29;20034;-76
2024/01/22 07:35:31;;;;;;;12.80;2.65;;;;;;;10.19;100.00;99995.72;4807765;29;21146;-77
2024/01/22 07:37:58;;;;;;;12.00;2.75;;;;;;;10.27;100.00;100002.94;4817545;29;20034;-75
2024/01/22 07:40:24;;;;;;;10.50;2.92;;;;;;;10.20;100.00;100018.91;4815686;29;20030;-74
2024/01/22 07:42:49;;;;;;;7.50;2.60;;;;;;;10.22;100.00;100016.50;4814284;29;20093;-74
2024/01/22 07:45:16;;;;;;;9.75;3.15;;;;;;;10.19;100.00;100012.50;4813342;29;20111;-74
2024/01/22 07:47:43;;;;;;;10.18;3.00;;;;;;;10.20;100.00;100028.09;4816511;29;20058;-77
2024/01/22 07:50:13;;;;;;;11.73;3.63;;;;;;;10.13;100.00;100012.09;4814010;29;20137;-74
2024/01/22 07:52:40;;;;;;;4.80;2.55;;;;;;;10.10;100.00;100024.09;4808030;29;20419;-76
2024/01/22 07:55:06;;;;;;;12.13;3.05;;;;;;;10.18;100.00;100030.47;4808847;29;20448;-74
2024/01/22 07:57:32;;;;;;;6.97;2.72;;;;;;;10.19;100.00;100029.28;4814286;29;20516;-75
2024/01/22 07:59:57;;;;;;;8.65;2.88;;;;;;;10.10;100.00;100015.69;4813457;29;20070;-75
2024/01/22 08:02:22;;;;;;;17.42;3.42;;;;;;;10.11;100.00;100019.28;4824189;29;20554;-74
2024/01/22 08:04:48;;;;;;;10.10;3.67;;;;;;;10.09;100.00;100030.84;4809254;29;20026;-74
2024/01/22 08:07:14;;;;;;;9.07;2.85;;;;;;;10.06;100.00;100031.66;4813878;29;20437;-75
2024/01/22 08:09:40;;;;;;;14.30;2.95;;;;;;;10.07;100.00;100032.44;4814018;29;20575;-74
2024/01/22 08:12:06;;;;;;;15.05;2.88;;;;;;;10.15;100.00;100014.50;4813821;29;20077;-74
2024/01/22 08:14:33;;;;;;;14.20;4.28;;;;;;;10.09;100.00;100030.06;4816380;29;20149;-75
2024/01/22 08:16:58;;;;;;;13.95;2.88;;;;;;;10.07;100.00;100035.25;4813115;29;20448;-74
2024/01/22 08:19:24;;;;;;;15.18;4.05;;;;;;;10.04;100.00;100038.84;4816208;29;20038;-74
2024/01/22 08:21:49;;;;;;;20.40;4.45;;;;;;;10.05;100.00;100044.03;4813965;29;20480;-74
2024/01/22 08:24:14;;;;;;;16.42;5.00;;;;;;;10.06;100.00;100042.06;4811222;29;20479;-75
2024/01/22 08:26:40;;;;;;;12.95;3.60;;;;;;;10.03;100.00;100056.81;4814961;29;20136;-75
2024/01/22 08:29:05;;;;;;;27.60;4.80;;;;;;;10.08;100.00;100050.84;4817930;29;20031;-74
2024/01/22 08:31:31;;;;;;;20.27;3.83;;;;;;;10.00;100.00;100052.00;4815023;29;20039;-74
2024/01/22 08:33:56;;;;;;;25.90;5.90;;;;;;;9.94;100.00;100049.59;4809863;29;20559;-74
2024/01/22 08:36:22;;;;;;;16.77;4.07;;;;;;;9.91;100.00;100053.19;4821965;29;20524;-75
2024/01/22 08:38:47;;;;;;;17.30;4.22;;;;;;;9.88;100.00;100056.75;4813723;29;20554;-77
2024/01/22 08:41:13;;;;;;;10.57;4.43;;;;;;;9.92;100.00;100060.34;4809805;29;20042;-74
2024/01/22 08:43:38;;;;;;;15.00;4.05;;;;;;;9.90;100.00;100082.31;4813584;29;20035;-76
2024/01/22 08:46:04;;;;;;;22.08;4.68;;;;;;;9.75;100.00;100072.28;4814108;29;20416;-74
2024/01/22 08:48:30;;;;;;;15.07;4.30;;;;;;;9.86;100.00;100084.28;4812524;29;20047;-76
2024/01/22 08:50:56;;;;;;;24.98;4.65;;;;;;;9.76;100.00;100085.84;4813510;29;20045;-75
2024/01/22 08:53:22;;;;;;;11.45;3.92;;;;;;;9.70;100.00;100086.63;4812903;29;20042;-76
2024/01/22 08:55:47;;;;;;;15.48;5.22;;;;;;;9.76;100.00;100097.03;4810768;29;20418;-75
2024/01/22 08:58:13;;;;;;;25.80;4.97;;;;;;;9.79;100.00;100100.25;4812477;29;20403;-75
2024/01/22 09:00:39;;;;;;;21.25;5.25;;;;;;;9.75;100.00;100109.41;4815024;29;20038;-74
2024/01/22 09:03:04;;;;;;;17.25;4.30;;;;;;;9.70;100.00;100131.34;4810589;29;20030;-77
2024/01/22 09:05:35;;;;;;;29.23;4.90;;;;;;;9.69;100.00;100129.72;4814727;29;20039;-75
2024/01/22 09:08:01;;;;;;;22.80;5.15;;;;;;;9.64;100.00;100130.91;4814876;29;20065;-75
2024/01/22 09:10:26;;;;;;;22.38;4.93;;;;;;;9.61;100.00;100123.28;4815602;29;20407;-74
2024/01/22 09:12:55;;;;;;;27.05;6.03;;;;;;;9.70;100.00;100125.75;4808015;29;20439;-75
2024/01/22 09:15:20;;;;;;;22.70;5.72;;;;;;;9.71;100.00;100121.75;4811467;29;20034;-74
2024/01/22 09:17:47;;;;;;;32.22;7.40;;;;;;;9.71;100.00;100130.13;4817845;29;20038;-77
2024/01/22 09:20:12;;;;;;;27.30;7.18;;;;;;;9.72;100.00;100140.13;4814485;29;20047;-77
2024/01/22 09:22:38;;;;;;;49.25;7.60;;;;;;;9.70;100.00;100120.16;4803145;29;20089;-76
2024/01/22 09:25:05;;;;;;;26.50;5.18;;;;;;;9.73;100.00;100125.75;4814421;29;20046;-77
2024/01/22 09:27:30;;;;;;;23.40;5.75;;;;;;;9.73;100.00;100136.94;4815729;29;20026;-80
2024/01/22 09:29:56;;;;;;;23.90;5.18;;;;;;;9.72;100.00;100145.72;4817757;29;20461;-78
2024/01/22 09:32:21;;;;;;;25.50;4.72;;;;;;;9.70;100.00;100145.31;4810277;29;20035;-80
2024/01/22 09:34:47;;;;;;;46.03;7.47;;;;;;;9.71;100.00;100132.94;4818792;29;20076;-80
2024/01/22 09:37:12;;;;;;;36.92;8.32;;;;;;;9.69;100.00;100140.91;4817198;29;20034;-80
2024/01/22 09:39:38;;;;;;;25.70;6.25;;;;;;;9.72;100.00;100145.72;4818499;29;20031;-78
2024/01/22 09:42:05;;;;;;;44.05;7.25;;;;;;;9.78;100.00;100149.72;4811646;29;20030;-80
2024/01/22 09:44:31;;;;;;;25.50;9.05;;;;;;;9.75;100.00;100153.31;4818952;29;20042;-80
2024/01/22 09:46:57;;;;;;;25.60;6.40;;;;;;;9.72;100.00;100160.50;4811954;29;20085;-79
2024/01/22 09:49:23;;;;;;;25.42;4.93;;;;;;;9.73;100.00;100164.09;4812097;29;20062;-80
2024/01/22 09:51:50;;;;;;;24.83;5.10;;;;;;;9.69;100.00;100174.44;4811562;29;20030;-80
2024/01/22 09:54:23;;;;;;;37.45;7.38;;;;;;;9.73;100.00;100175.25;4814787;29;20043;-79
2024/01/22 09:56:53;;;;;;;35.15;9.32;;;;;;;9.71;100.00;100183.22;4818745;29;20520;-79
2024/01/22 09:59:21;;;;;;;45.42;7.57;;;;;;;9.67;100.00;100172.03;4811619;29;20050;-80
2024/01/22 10:01:48;;;;;;;39.55;9.07;;;;;;;9.68;100.00;100172.84;4812803;29;20035;-80
2024/01/22 10:04:14;;;;;;;32.17;5.57;;;;;;;9.67;100.00;100176.81;4816022;29;20034;-79
2024/01/22 10:06:43;;;;;;;23.42;6.38;;;;;;;9.66;100.00;100186.41;4817640;29;20037;-79
2024/01/22 10:09:10;;;;;;;27.15;6.95;;;;;;;9.65;100.00;100184.78;4815262;29;20167;-80
2024/01/22 10:11:35;;;;;;;37.50;6.13;;;;;;;9.62;100.00;100191.97;4810262;29;20049;-80
2024/01/22 10:14:00;;;;;;;33.83;8.57;;;;;;;9.57;100.00;100207.09;4812009;29;20023;-80
2024/01/22 10:16:27;;;;;;;31.52;6.72;;;;;;;9.55;100.00;100220.66;4814691;29;20041;-80
2024/01/22 10:18:58;;;;;;;31.27;7.25;;;;;;;9.53;100.00;100223.03;4814086;29;20566;-80
2024/01/22 10:21:23;;;;;;;35.28;7.20;;;;;;;9.57;100.00;100228.63;4812093;29;20108;-80
2024/01/22 10:24:00;;;;;;;24.40;5.72;;;;;;;9.56;100.00;100239.00;4814444;29;20479;-80
2024/01/22 10:26:26;;;;;;;31.17;7.32;;;;;;;9.59;100.00;100256.19;4817485;29;20463;-78
2024/01/22 10:28:52;;;;;;;35.70;6.20;;;;;;;9.55;100.00;100245.78;4810650;29;20045;-79
2024/01/22 10:31:21;;;;;;;35.13;7.85;;;;;;;9.55;100.00;100247.78;4828501;29;20149;-80
2024/01/22 10:33:48;;;;;;;32.35;6.40;;;;;;;9.56;100.00;100247.38;4816462;29;20552;-79
2024/01/22 10:36:19;;;;;;;27.85;6.72;;;;;;;9.53;100.00;100262.16;4812309;29;20121;-77
2024/01/22 10:38:45;;;;;;;28.83;6.93;;;;;;;9.51;100.00;100233.00;4817244;29;20564;-80
2024/01/22 10:41:18;;;;;;;35.67;7.15;;;;;;;9.49;100.00;100252.94;4813383;29;20483;-79
2024/01/22 10:43:43;;;;;;;24.05;6.50;;;;;;;9.49;100.00;100263.31;4815966;29;20601;-79
2024/01/22 10:46:11;;;;;;;30.95;7.03;;;;;;;9.50;100.00;100257.31;4814388;29;20085;-74
2024/01/22 10:48:37;;;;;;;28.65;5.20;;;;;;;9.54;100.00;100262.94;4816752;29;20221;-76
2024/01/22 10:51:04;;;;;;;34.67;7.47;;;;;;;9.55;100.00;100276.53;4828265;29;20505;-76
2024/01/22 10:53:31;;;;;;;25.45;5.50;;;;;;;9.47;100.00;100272.06;4818097;29;20399;-77
2024/01/22 10:56:00;;;;;;;33.10;6.25;;;;;;;9.49;100.00;100271.69;4816468;29;20551;-76
2024/01/22 10:58:39;;;;;;;30.35;6.07;;;;;;;9.47;100.00;100286.03;4814612;29;20034;-80
2024/01/22 11:01:16;;;;;;;16.55;4.32;;;;;;;9.48;100.00;100287.63;4812719;29;20373;-78
2024/01/22 11:04:00;;;;;;;32.78;7.32;;;;;;;9.45;100.00;100288.41;4814881;29;20149;-79
2024/01/22 11:06:27;;;;;;;37.47;4.95;;;;;;;9.42;100.00;100289.16;4808648;29;20491;-79
2024/01/22 11:08:54;;;;;;;28.80;6.88;;;;;;;9.45;100.00;100277.22;4816595;29;20034;-79
2024/01/22 11:11:27;;;;;;;19.35;6.20;;;;;;;9.46;100.00;100305.97;4809176;29;20083;-79
2024/01/22 11:14:02;;;;;;;22.45;4.82;;;;;;;9.40;100.00;100301.91;4813788;29;20045;-79
2024/01/22 11:16:27;;;;;;;22.27;5.55;;;;;;;9.45;100.00;100310.75;4828724;29;20030;-80
2024/01/22 11:19:00;;;;;;;14.63;3.65;;;;;;;9.50;100.00;100313.19;4815593;29;20134;-80
2024/01/22 11:21:39;;;;;;;20.17;5.53;;;;;;;9.44;100.00;100303.53;4821498;29;20034;-80
2024/01/22 11:24:13;;;;;;;18.33;5.00;;;;;;;9.42;100.00;100328.25;4816063;29;20064;-79
2024/01/22 11:27:03;;;;;;;21.13;4.20;;;;;;;9.44;100.00;100325.09;4814383;29;20050;-78
2024/01/22 11:29:29;;;;;;;26.05;5.13;;;;;;;9.43;100.00;100338.25;4814315;29;20034;-78
2024/01/22 11:31:58;;;;;;;28.80;4.97;;;;;;;9.45;100.00;100338.69;4817997;29;20053;-79
2024/01/22 11:34:39;;;;;;;22.08;4.72;;;;;;;9.40;100.00;100338.22;4808047;29;20030;-78
2024/01/22 11:37:05;;;;;;;20.40;5.72;;;;;;;9.44;100.00;100341.84;4814681;29;20046;-80
2024/01/22 11:39:40;;;;;;;21.00;4.38;;;;;;;9.40;100.00;100352.97;4820460;29;20030;-79
2024/01/22 11:42:18;;;;;;;20.50;4.07;;;;;;;9.35;100.00;100350.53;4826375;29;20117;-79
2024/01/22 11:44:50;;;;;;;21.20;4.30;;;;;;;9.41;100.00;100349.03;4811272;29;20042;-78
2024/01/22 11:47:19;;;;;;;;;;;;;;;9.38;100.00;100366.53;4816609;29;20064;-80
2024/01/22 11:49:45;;;;;;;24.63;4.85;;;;;;;9.43;100.00;100360.63;4816568;29;19928;-79
2024/01/22 11:52:20;;;;;;;18.67;3.92;;;;;;;9.40;100.00;100361.38;4818568;29;20042;-79
2024/01/22 11:55:00;;;;;;;23.65;5.55;;;;;;;9.44;100.00;100367.78;4817326;29;20433;-78
2024/01/22 11:57:27;;;;;;;20.85;5.10;;;;;;;9.47;100.00;100364.25;4816621;29;20522;-74
2024/01/22 12:00:05;;;;;;;15.60;3.95;;;;;;;9.46;100.00;100373.00;4809410;29;20067;-76
2024/01/22 12:02:34;;;;;;;26.63;5.53;;;;;;;9.49;100.00;100378.63;4809732;29;20153;-76
2024/01/22 12:05:04;;;;;;;15.63;3.13;;;;;;;9.40;100.00;100380.91;4812056;29;20400;-76
2024/01/22 12:07:37;;;;;;;13.10;3.50;;;;;;;9.41;100.00;100393.72;4806372;29;20045;-77
2024/01/22 12:10:04;;;;;;;20.15;5.05;;;;;;;9.40;100.00;100375.34;4806969;29;20034;-77
2024/01/22 12:12:30;;;;;;;18.58;4.40;;;;;;;9.39;100.00;100390.50;4807070;29;20038;-78
2024/01/22 12:15:00;;;;;;;21.95;4.45;;;;;;;9.44;100.00;100381.75;4807805;29;20034;-77
2024/01/22 12:17:25;;;;;;;23.67;4.05;;;;;;;9.47;100.00;100386.59;4804465;29;20041;-77
2024/01/22 12:19:54;;;;;;;20.75;4.60;;;;;;;9.40;100.00;100396.88;4811900;29;20035;-77
2024/01/22 12:22:24;;;;;;;20.23;3.95;;;;;;;9.40;100.00;100402.47;4807983;29;20384;-77
2024/01/22 12:25:06;;;;;;;20.88;4.78;;;;;;;9.40;100.00;100406.06;4812983;29;20034;-77
2024/01/22 12:27:32;;;;;;;;;;;;;;;9.41;100.00;100404.88;4810636;29;20062;-75
2024/01/22 12:30:03;;;;;;;14.10;3.47;;;;;;;9.43;100.00;100419.28;4807860;29;20345;-77
2024/01/22 12:32:28;;;;;;;19.67;3.67;;;;;;;9.39;100.00;100418.44;4809913;29;20069;-77
2024/01/22 12:34:58;;;;;;;25.17;4.30;;;;;;;9.36;100.00;100414.41;4806698;29;20117;-77
2024/01/22 12:37:25;;;;;;;11.82;3.70;;;;;;;9.33;100.00;100414.38;4812800;29;20488;-77
2024/01/22 12:40:04;;;;;;;26.33;3.78;;;;;;;9.34;100.00;100432.75;4821202;29;20492;-76
2024/01/22 12:42:29;;;;;;;26.92;3.78;;;;;;;9.35;100.00;100423.16;4807547;29;20477;-77
2024/01/22 12:44:58;;;;;;;22.08;3.65;;;;;;;9.31;100.00;100422.31;4812144;29;20034;-78
2024/01/22 12:47:30;;;;;;;16.65;3.10;;;;;;;9.33;100.00;100431.91;4813757;29;20052;-78
2024/01/22 12:49:55;;;;;;;20.83;4.07;;;;;;;9.34;100.00;100429.97;4806770;29;20121;-77
2024/01/22 12:52:21;;;;;;;20.08;3.92;;;;;;;9.34;100.00;100432.75;4809194;29;20031;-77
2024/01/22 12:54:47;;;;;;;17.52;3.63;;;;;;;9.33;100.00;100442.28;4815474;29;20051;-77
2024/01/22 12:57:12;;;;;;;17.23;3.83;;;;;;;9.35;100.00;100456.69;4813398;29;20484;-76
2024/01/22 12:59:37;;;;;;;17.67;4.90;;;;;;;9.35;100.00;100456.69;4812395;29;20038;-77
2024/01/22 13:02:03;;;;;;;14.45;2.85;;;;;;;9.34;100.00;100457.88;4814836;29;20031;-76
2024/01/22 13:04:28;;;;;;;29.92;4.82;;;;;;;9.32;100.00;100468.63;4817362;29;20019;-77
2024/01/22 13:06:54;;;;;;;13.65;3.40;;;;;;;9.31;100.00;100461.41;4818705;29;20512;-77
2024/01/22 13:09:22;;;;;;;22.08;3.75;;;;;;;9.28;100.00;100468.56;4815396;29;20117;-76
2024/01/22 13:11:48;;;;;;;21.10;3.88;;;;;;;9.23;100.00;100470.88;4814621;29;20495;-77
2024/01/22 13:14:13;;;;;;;24.33;3.38;;;;;;;9.23;100.00;100465.31;4815500;29;20027;-76
2024/01/22 13:16:38;;;;;;;16.67;3.85;;;;;;;9.23;100.00;100480.06;4819404;29;20494;-78
2024/01/22 13:19:04;;;;;;;16.95;3.17;;;;;;;9.24;100.00;100470.50;4814254;29;20038;-77
2024/01/22 13:21:29;;;;;;;17.42;4.10;;;;;;;9.24;100.00;100478.09;4819727;29;20407;-78
2024/01/22 13:23:54;;;;;;;14.05;3.90;;;;;;;9.28;100.00;100479.75;4813971;29;20050;-79
2024/01/22 13:26:20;;;;;;;18.33;3.60;;;;;;;9.23;100.00;100470.88;4817610;29;20408;-77
2024/01/22 13:28:48;;;;;;;25.67;4.10;;;;;;;9.21;100.00;100488.00;4810838;29;20038;-78
2024/01/22 13:31:14;;;;;;;15.73;3.80;;;;;;;9.20;100.00;100472.47;4811286;29;20031;-78
2024/01/22 13:33:39;;;;;;;18.83;3.40;;;;;;;9.19;100.00;100497.97;4813302;29;20392;-79
2024/01/22 13:36:05;;;;;;;29.70;4.47;;;;;;;9.18;100.00;100485.19;4814172;29;20455;-78
2024/01/22 13:38:33;;;;;;;21.38;3.38;;;;;;;9.12;100.00;100499.47;4817895;29;20049;-76
2024/01/22 13:41:01;;;;;;;20.13;3.88;;;;;;;9.13;100.00;100515.06;4806724;29;20043;-76
2024/01/22 13:43:27;;;;;;;13.65;3.30;;;;;;;9.08;100.00;100498.59;4818958;29;20074;-76
2024/01/22 13:45:53;;;;;;;17.98;3.55;;;;;;;9.12;100.00;100510.63;4811441;29;20033;-76
2024/01/22 13:48:18;;;;;;;20.08;3.45;;;;;;;9.11;100.00;100508.25;4814575;29;20042;-76
2024/01/22 13:50:43;;;;;;;22.08;4.32;;;;;;;9.13;100.00;100512.25;4813577;29;20083;-76
2024/01/22 13:53:10;;;;;;;17.45;3.13;;;;;;;9.09;100.00;100503.03;4808481;29;20038;-76
2024/01/22 13:55:36;;;;;;;15.65;2.97;;;;;;;9.10;100.00;100518.59;4812233;29;20082;-76
2024/01/22 13:58:01;;;;;;;23.38;4.70;;;;;;;9.02;100.00;100514.06;4812016;29;20864;-76
2024/01/22 14:00:26;;;;;;;15.48;3.88;;;;;;;9.06;100.00;100517.72;4813417;29;20046;-76
2024/01/22 14:02:52;;;;;;;18.08;4.07;;;;;;;9.04;100.00;100517.28;4814768;29;20042;-76
2024/01/22 14:05:17;;;;;;;17.67;3.50;;;;;;;9.11;100.00;100527.78;4831962;29;20037;-76
2024/01/22 14:07:43;;;;;;;15.80;5.28;;;;;;;9.05;100.00;100520.91;4811677;29;20034;-75
2024/01/22 14:10:12;;;;;;;13.60;3.92;;;;;;;9.04;100.00;100536.84;4818434;29;20038;-76
2024/01/22 14:12:38;;;;;;;16.30;3.53;;;;;;;9.02;100.00;100536.41;4819173;29;20033;-76
2024/01/22 14:15:03;;;;;;;33.55;3.70;;;;;;;9.06;100.00;100533.69;4813638;29;20044;-75
2024/01/22 14:17:29;;;;;;;17.55;3.65;;;;;;;9.04;100.00;100525.66;4812504;29;20102;-76
2024/01/22 14:19:55;;;;;;;18.63;3.88;;;;;;;9.07;100.00;100538.88;4814733;29;20091;-77
2024/01/22 14:22:23;;;;;;;20.00;3.88;;;;;;;9.07;100.00;100544.47;4814574;29;20534;-77
2024/01/22 14:24:49;;;;;;;19.17;3.40;;;;;;;9.12;100.00;100541.34;4820449;29;20160;-77
2024/01/22 14:27:14;;;;;;;15.40;3.50;;;;;;;9.06;100.00;100545.66;4811861;29;20523;-75
2024/01/22 14:29:40;;;;;;;11.98;2.90;;;;;;;9.02;100.00;100544.78;4819610;29;20042;-75
2024/01/22 14:32:06;;;;;;;12.77;3.75;;;;;;;8.93;100.00;100535.88;4818742;29;20069;-76
2024/01/22 14:34:32;;;;;;;12.20;3.05;;;;;;;8.93;100.00;100545.06;4813151;29;20399;-77
2024/01/22 14:36:57;;;;;;;24.13;3.58;;;;;;;8.95;100.00;100556.66;4811041;29;20500;-76
2024/01/22 14:39:23;;;;;;;21.27;3.85;;;;;;;8.96;100.00;100554.69;4820235;29;20045;-76
2024/01/22 14:41:48;;;;;;;22.73;3.72;;;;;;;8.95;100.00;100539.09;4811801;29;20046;-76
2024/01/22 14:44:13;;;;;;;11.80;4.07;;;;;;;8.89;100.00;100549.78;4817822;29;20023;-76
2024/01/22 14:46:41;;;;;;;20.25;3.83;;;;;;;8.91;100.00;100550.19;4814679;29;20052;-76
2024/01/22 14:49:08;;;;;;;12.90;3.58;;;;;;;8.89;100.00;100562.94;4813724;29;20042;-76
2024/01/22 14:51:34;;;;;;;14.30;4.32;;;;;;;8.89;100.00;100562.94;4809984;29;20105;-76
2024/01/22 14:54:00;;;;;;;15.93;5.05;;;;;;;8.84;100.00;100577.22;4816064;29;20121;-76
2024/01/22 14:56:25;;;;;;;16.00;3.40;;;;;;;8.80;100.00;100577.16;4810082;29;20113;-76
2024/01/22 14:58:51;;;;;;;10.93;3.15;;;;;;;8.77;100.00;100577.06;4808653;29;20046;-76
2024/01/22 15:01:17;;;;;;;15.70;3.35;;;;;;;8.80;100.00;100582.72;4808794;29;20042;-76
2024/01/22 15:03:42;;;;;;;20.67;3.92;;;;;;;8.84;100.00;100588.38;4829005;29;20492;-76
2024/01/22 15:06:07;;;;;;;19.88;4.55;;;;;;;8.77;100.00;100608.59;4818107;29;20045;-76
2024/01/22 15:08:33;;;;;;;14.75;3.50;;;;;;;8.78;100.00;100601.81;4818072;29;20178;-77
2024/01/22 15:11:00;;;;;;;15.35;3.63;;;;;;;8.77;100.00;100599.41;4817331;29;20022;-76
2024/01/22 15:13:26;;;;;;;11.43;2.88;;;;;;;8.70;100.00;100592.50;4814095;29;20479;-76
2024/01/22 15:15:51;;;;;;;18.27;3.38;;;;;;;8.64;100.00;100613.53;4812470;29;20051;-76
2024/01/22 15:18:17;;;;;;;16.52;3.45;;;;;;;8.70;100.00;100616.81;4808426;29;20041;-76
2024/01/22 15:20:43;;;;;;;14.15;3.08;;;;;;;8.59;100.00;100616.63;4818430;29;20440;-76
2024/01/22 15:23:09;;;;;;;21.15;3.75;;;;;;;8.59;100.00;100615.84;4812999;29;20042;-76
2024/01/22 15:25:35;;;;;;;16.95;4.15;;;;;;;8.62;100.00;100623.47;4816391;29;20379;-76
2024/01/22 15:28:01;;;;;;;18.90;4.70;;;;;;;8.58;100.00;100626.19;4813899;29;20038;-76
2024/01/22 15:30:26;;;;;;;16.70;4.35;;;;;;;8.78;100.00;100635.31;4813379;29;20845;-76
2024/01/22 15:32:51;;;;;;;19.30;3.95;;;;;;;8.73;100.00;100633.66;4813467;29;20042;-79
2024/01/22 15:35:17;;;;;;;29.83;3.78;;;;;;;8.56;100.00;100639.72;4814335;29;20187;-77
2024/01/22 15:37:43;;;;;;;15.77;3.80;;;;;;;8.57;100.00;100644.09;4821862;29;20031;-80
2024/01/22 15:40:09;;;;;;;21.70;3.38;;;;;;;8.54;100.00;100651.22;4812038;29;20052;-78
2024/01/22 15:42:35;;;;;;;11.52;2.75;;;;;;;8.48;100.00;100649.13;4814395;29;20048;-83
2024/01/22 15:45:00;;;;;;;14.00;2.45;;;;;;;8.50;100.00;100655.13;4815400;29;20550;-81
2024/01/22 15:47:25;;;;;;;15.60;3.33;;;;;;;8.51;100.00;100662.31;4804314;29;20074;-79
2024/01/22 15:49:51;;;;;;;8.13;2.72;;;;;;;8.53;100.00;100657.16;4808836;29;20085;-74
2024/01/22 15:52:16;;;;;;;16.38;4.53;;;;;;;8.45;100.00;100650.63;4811511;29;20147;-74
2024/01/22 15:54:42;;;;;;;28.30;3.92;;;;;;;8.39;100.00;100668.03;4809505;29;20043;-74
2024/01/22 15:57:09;;;;;;;17.02;3.45;;;;;;;8.40;100.00;100644.53;4810678;29;20111;-74
2024/01/22 15:59:34;;;;;;;14.50;3.50;;;;;;;8.32;100.00;100655.53;4814867;29;20399;-75
2024/01/22 16:02:00;;;;;;;15.60;3.55;;;;;;;8.30;100.00;100654.31;4808612;29;20034;-75
2024/01/22 16:04:25;;;;;;;13.88;3.20;;;;;;;8.28;100.00;100671.41;4813684;29;20034;-74
2024/01/22 16:06:51;;;;;;;16.20;4.57;;;;;;;8.22;100.00;100672.88;4811400;29;20049;-75
2024/01/22 16:09:16;;;;;;;22.60;3.20;;;;;;;8.23;100.00;100660.56;4807688;29;20118;-75
2024/01/22 16:11:42;;;;;;;14.60;3.00;;;;;;;8.14;100.00;100673.91;4809978;29;20038;-75
2024/01/22 16:14:07;;;;;;;12.93;3.28;;;;;;;8.15;100.00;100667.16;4815704;29;20029;-74
2024/01/22 16:16:33;;;;;;;14.35;3.10;;;;;;;8.14;100.00;100663.56;4810593;29;20428;-74
2024/01/22 16:19:00;;;;;;;19.98;3.75;;;;;;;8.07;100.00;100679.31;4810749;29;20038;-75
2024/01/22 16:21:25;;;;;;;20.25;4.05;;;;;;;8.07;100.00;100682.09;4814804;29;20066;-75
2024/01/22 16:23:50;;;;;;;16.17;3.30;;;;;;;8.06;100.00;100683.28;4812560;29;20141;-75
2024/01/22 16:26:16;;;;;;;30.35;3.80;;;;;;;7.98;100.00;100693.47;4811485;29;20605;-74
2024/01/22 16:28:41;;;;;;;16.25;3.25;;;;;;;7.97;100.00;100703.03;4811644;29;20042;-75
2024/01/22 16:31:10;;;;;;;25.38;3.25;;;;;;;8.01;100.00;100711.44;4806574;29;20046;-74
2024/01/22 16:33:35;;;;;;;14.40;4.03;;;;;;;8.01;100.00;100709.47;4810795;29;20041;-75
2024/01/22 16:36:02;;;;;;;23.90;4.55;;;;;;;8.04;100.00;100705.16;4813689;29;20038;-75
2024/01/22 16:38:27;;;;;;;20.77;4.07;;;;;;;8.00;100.00;100710.63;4823619;29;20034;-74
2024/01/22 16:40:52;;;;;;;17.80;5.10;;;;;;;7.99;100.00;100716.56;4818047;29;20083;-74
2024/01/22 16:43:18;;;;;;;18.70;3.83;;;;;;;7.97;100.00;100713.34;4817461;29;20523;-77
2024/01/22 16:45:43;;;;;;;13.63;2.92;;;;;;;7.97;100.00;100730.06;4810103;29;20034;-75
2024/01/22 16:48:10;;;;;;;12.70;3.00;;;;;;;7.98;100.00;100740.06;4812915;29;20140;-74
2024/01/22 16:50:35;;;;;;;14.35;2.75;;;;;;;7.98;100.00;100726.13;4814092;29;20436;-72
2024/01/22 16:53:04;;;;;;;24.88;4.78;;;;;;;7.90;100.00;100741.88;4805724;29;20360;-72
2024/01/22 16:55:29;;;;;;;20.92;3.53;;;;;;;7.90;100.00;100737.09;4813065;29;20046;-71
2024/01/22 16:57:55;;;;;;;17.80;3.25;;;;;;;7.89;100.00;100745.84;4816587;29;20042;-71
2024/01/22 17:00:21;;;;;;;11.35;3.10;;;;;;;7.87;100.00;100754.56;4817027;29;20034;-71
2024/01/22 17:02:47;;;;;;;23.67;4.93;;;;;;;7.90;100.00;100751.03;4813070;29;20038;-73